Time;durP1;ratioP1;P1;durP2;ratioP2;P2;SDS_P1;SDS_P2;PMS_P1;PMS_P2;Temp;Humidity;BMP_temperature;BMP_pressure;BME280_temperature;BME280_humidity;BME280_pressure;Samples;Min_cycle;Max_cycle;Signal;HPM_P1;HPM_P2
2023/11/11 00:01:53;;;;;;;75.82;30.92;;;6.40;99.90;;;;;;5076924;28;20087;-77
2023/11/11 00:04:18;;;;;;;53.20;23.55;;;6.30;99.90;;;;;;5077332;28;20026;-77
2023/11/11 00:06:45;;;;;;;54.78;24.63;;;6.40;99.90;;;;;;5077323;28;20026;-84
2023/11/11 00:09:10;;;;;;;64.13;27.45;;;6.40;99.90;;;;;;5080761;28;20413;-84
2023/11/11 00:11:37;;;;;;;77.22;31.50;;;6.40;99.90;;;;;;5013006;28;20025;-83
2023/11/11 00:14:03;;;;;;;86.03;31.92;;;6.40;99.90;;;;;;5012786;28;20083;-84
2023/11/11 00:16:30;;;;;;;87.57;33.50;;;6.40;99.90;;;;;;5080939;28;20065;-77
2023/11/11 00:18:56;;;;;;;80.13;31.90;;;6.40;99.90;;;;;;5012627;28;20557;-84
2023/11/11 00:21:22;;;;;;;67.70;28.23;;;6.40;99.90;;;;;;5013143;28;20030;-84
2023/11/11 00:23:48;;;;;;;56.85;23.10;;;6.40;99.90;;;;;;5081116;28;20491;-78
2023/11/11 00:26:13;;;;;;;66.38;25.92;;;6.30;99.90;;;;;;5012445;28;20075;-77
2023/11/11 00:28:41;;;;;;;96.88;39.03;;;6.30;99.90;;;;;;5075127;28;20023;-77
2023/11/11 00:31:08;;;;;;;126.00;41.63;;;6.30;99.90;;;;;;5077597;28;20030;-84
2023/11/11 00:33:34;;;;;;;30.88;17.52;;;6.30;99.90;;;;;;5080668;28;20014;-77
2023/11/11 00:36:04;;;;;;;29.92;15.77;;;6.30;99.90;;;;;;5012132;28;20041;-83
2023/11/11 00:38:30;;;;;;;49.63;23.67;;;6.20;99.90;;;;;;5012728;28;20032;-78
2023/11/11 00:40:56;;;;;;;27.88;16.60;;;6.20;99.90;;;;;;5073600;28;20524;-83
2023/11/11 00:43:22;;;;;;;30.48;17.40;;;6.20;99.90;;;;;;5012592;28;20129;-77
2023/11/11 00:45:47;;;;;;;27.92;16.40;;;6.10;99.90;;;;;;5080118;28;20108;-83
2023/11/11 00:48:13;;;;;;;26.50;17.20;;;6.10;99.90;;;;;;5012378;28;20049;-83
2023/11/11 00:50:39;;;;;;;71.20;30.73;;;6.10;99.90;;;;;;5012424;28;20071;-84
2023/11/11 00:53:05;;;;;;;84.47;34.20;;;6.10;99.90;;;;;;5012223;28;20520;-83
2023/11/11 00:55:30;;;;;;;41.90;20.00;;;6.10;99.90;;;;;;5080582;28;20032;-78
2023/11/11 00:57:56;;;;;;;30.35;18.63;;;6.10;99.90;;;;;;5080363;28;20045;-77
2023/11/11 01:00:22;;;;;;;46.03;22.95;;;6.10;99.90;;;;;;5011672;28;20057;-77
2023/11/11 01:02:50;;;;;;;61.15;25.85;;;6.00;99.90;;;;;;5080426;28;20033;-77
2023/11/11 01:05:16;;;;;;;43.10;22.52;;;6.00;99.90;;;;;;5012267;28;20033;-84
2023/11/11 01:07:42;;;;;;;57.35;26.90;;;6.00;99.90;;;;;;5079967;28;20026;-77
2023/11/11 01:10:08;;;;;;;78.57;33.35;;;6.00;99.90;;;;;;5080176;28;20792;-83
2023/11/11 01:12:34;;;;;;;72.45;31.92;;;6.00;99.90;;;;;;5012211;28;20019;-83
2023/11/11 01:15:00;;;;;;;66.97;29.95;;;6.00;99.90;;;;;;5012091;28;20368;-84
2023/11/11 01:17:26;;;;;;;60.55;28.05;;;6.00;99.90;;;;;;5011795;28;20033;-83
2023/11/11 01:19:52;;;;;;;76.60;31.48;;;6.00;99.90;;;;;;5011162;28;20030;-77
2023/11/11 01:22:18;;;;;;;66.97;30.02;;;6.00;99.90;;;;;;5079766;28;20026;-82
2023/11/11 01:24:45;;;;;;;58.58;26.30;;;6.00;99.90;;;;;;5079691;28;20167;-83
2023/11/11 01:27:11;;;;;;;72.90;34.53;;;6.00;99.90;;;;;;5079508;28;20034;-77
2023/11/11 01:29:38;;;;;;;84.50;36.20;;;5.90;99.90;;;;;;5012058;28;20024;-77
2023/11/11 01:32:05;;;;;;;54.22;26.70;;;5.90;99.90;;;;;;5006186;28;20023;-83
2023/11/11 01:34:31;;;;;;;54.85;26.77;;;5.90;99.90;;;;;;5072062;28;20479;-77
2023/11/11 01:36:56;;;;;;;67.75;31.95;;;5.90;99.90;;;;;;5079514;28;20030;-77
2023/11/11 01:39:22;;;;;;;65.10;31.40;;;6.00;99.90;;;;;;5011874;28;20046;-76
2023/11/11 01:41:48;;;;;;;47.97;27.02;;;5.90;99.90;;;;;;5011618;28;20428;-77
2023/11/11 01:44:13;;;;;;;60.20;27.55;;;5.90;99.90;;;;;;5079348;28;20053;-77
2023/11/11 01:46:40;;;;;;;60.00;27.80;;;5.90;99.90;;;;;;5011333;28;20034;-83
2023/11/11 01:49:06;;;;;;;62.75;29.40;;;5.90;99.90;;;;;;5011638;28;20014;-78
2023/11/11 01:51:35;;;;;;;74.80;31.42;;;6.00;99.90;;;;;;5071624;28;20113;-77
2023/11/11 01:54:02;;;;;;;57.35;27.17;;;6.00;99.90;;;;;;5077476;28;20040;-83
2023/11/11 01:56:28;;;;;;;44.40;24.77;;;6.00;99.90;;;;;;5083236;28;20117;-83
2023/11/11 01:58:54;;;;;;;44.22;23.83;;;6.00;99.90;;;;;;5011343;28;20030;-77
2023/11/11 02:01:20;;;;;;;46.35;24.65;;;6.00;99.90;;;;;;5010506;28;20038;-84
2023/11/11 02:03:47;;;;;;;38.00;21.27;;;6.00;99.90;;;;;;5011101;28;20034;-77
2023/11/11 02:06:13;;;;;;;35.63;21.83;;;6.10;99.90;;;;;;5011121;28;20026;-78
2023/11/11 02:08:38;;;;;;;33.83;21.13;;;6.00;99.90;;;;;;5011379;28;20022;-77
2023/11/11 02:11:05;;;;;;;29.92;18.98;;;6.00;99.90;;;;;;5010568;28;20026;-83
2023/11/11 02:13:35;;;;;;;33.45;19.92;;;6.00;99.90;;;;;;5079111;28;20018;-84
2023/11/11 02:16:05;;;;;;;39.72;21.23;;;6.00;99.90;;;;;;5078526;28;20125;-77
2023/11/11 02:18:31;;;;;;;30.05;20.02;;;6.00;99.90;;;;;;5010870;28;20032;-78
2023/11/11 02:20:57;;;;;;;32.50;19.85;;;6.00;99.90;;;;;;5011098;28;20022;-83
2023/11/11 02:23:37;;;;;;;29.23;19.83;;;6.10;99.90;;;;;;5011102;28;20026;-83
2023/11/11 02:26:04;;;;;;;31.27;19.17;;;6.10;99.90;;;;;;5010479;28;20045;-83
2023/11/11 02:28:30;;;;;;;31.48;19.70;;;6.10;99.90;;;;;;5062586;28;20015;-77
2023/11/11 02:30:56;;;;;;;33.75;20.65;;;6.10;99.90;;;;;;5072823;28;20474;-77
2023/11/11 02:33:22;;;;;;;34.45;22.10;;;6.10;99.90;;;;;;5078711;28;20173;-77
2023/11/11 02:35:48;;;;;;;34.60;21.33;;;6.10;99.90;;;;;;5010719;28;20100;-77
2023/11/11 02:38:14;;;;;;;31.02;20.50;;;6.20;99.90;;;;;;5010797;28;20071;-83
2023/11/11 02:40:40;;;;;;;31.35;18.58;;;6.10;99.90;;;;;;5010654;28;20024;-83
2023/11/11 02:43:06;;;;;;;27.40;16.65;;;6.10;99.90;;;;;;5010821;28;20013;-77
2023/11/11 02:45:32;;;;;;;27.60;17.15;;;6.10;99.90;;;;;;5010826;28;20101;-83
2023/11/11 02:47:58;;;;;;;27.70;17.65;;;6.10;99.90;;;;;;5010392;28;20158;-83
2023/11/11 02:50:24;;;;;;;26.13;15.60;;;6.10;99.90;;;;;;5010599;28;20014;-83
2023/11/11 02:52:50;;;;;;;26.75;16.48;;;6.10;99.90;;;;;;5010471;28;20029;-76
2023/11/11 02:55:18;;;;;;;25.50;15.65;;;6.10;99.90;;;;;;5010698;28;20022;-77
2023/11/11 02:57:44;;;;;;;25.65;16.75;;;6.10;99.90;;;;;;5010250;28;20038;-77
2023/11/11 03:00:11;;;;;;;29.38;18.52;;;6.10;99.90;;;;;;5010500;28;20021;-82
2023/11/11 03:02:37;;;;;;;31.15;19.75;;;6.10;99.90;;;;;;5077609;28;20108;-83
2023/11/11 03:05:04;;;;;;;32.28;20.15;;;6.10;99.90;;;;;;5010327;28;20471;-82
2023/11/11 03:07:30;;;;;;;31.08;18.60;;;6.10;99.90;;;;;;5078006;28;20018;-83
2023/11/11 03:09:56;;;;;;;33.13;19.52;;;6.10;99.90;;;;;;5010475;28;20091;-83
2023/11/11 03:12:22;;;;;;;32.13;20.15;;;6.10;99.90;;;;;;5078239;28;20113;-83
2023/11/11 03:14:48;;;;;;;30.23;19.27;;;6.10;99.90;;;;;;5010402;28;20104;-84
2023/11/11 03:17:13;;;;;;;34.60;20.98;;;6.10;99.90;;;;;;5077833;28;20072;-83
2023/11/11 03:19:40;;;;;;;30.33;18.48;;;6.10;99.90;;;;;;5077941;28;20104;-83
2023/11/11 03:22:06;;;;;;;35.47;20.42;;;6.20;99.90;;;;;;5010023;28;20028;-83
2023/11/11 03:24:31;;;;;;;32.05;20.08;;;6.20;99.90;;;;;;5010248;28;20452;-83
2023/11/11 03:26:57;;;;;;;35.28;21.48;;;6.20;99.90;;;;;;5010156;28;20029;-83
2023/11/11 03:29:23;;;;;;;36.53;21.65;;;6.20;99.90;;;;;;5071542;28;20372;-83
2023/11/11 03:31:49;;;;;;;30.42;18.08;;;6.20;99.90;;;;;;5009901;28;20090;-77
2023/11/11 03:34:14;;;;;;;33.78;20.33;;;6.20;99.90;;;;;;5009911;28;20029;-79
2023/11/11 03:36:41;;;;;;;32.13;19.67;;;6.20;99.90;;;;;;5010013;28;20042;-84
2023/11/11 03:39:07;;;;;;;34.17;19.92;;;6.20;99.90;;;;;;5010049;28;20483;-77
2023/11/11 03:41:32;;;;;;;39.83;21.17;;;6.20;99.90;;;;;;5009683;28;20033;-77
2023/11/11 03:43:58;;;;;;;39.85;21.33;;;6.20;99.90;;;;;;5014813;28;20026;-78
2023/11/11 03:46:24;;;;;;;36.47;20.80;;;6.20;99.90;;;;;;5083987;28;20037;-77
2023/11/11 03:48:49;;;;;;;40.15;21.38;;;6.20;99.90;;;;;;5084373;28;20116;-77
2023/11/11 03:51:15;;;;;;;38.92;22.40;;;6.20;99.90;;;;;;5016385;28;20029;-84
2023/11/11 03:53:40;;;;;;;44.58;22.58;;;6.30;99.90;;;;;;5083740;28;20038;-77
2023/11/11 03:56:10;;;;;;;37.38;20.85;;;6.20;99.90;;;;;;5084000;28;20788;-77
2023/11/11 03:58:36;;;;;;;38.40;21.58;;;6.20;99.90;;;;;;5084017;28;20022;-77
2023/11/11 04:01:02;;;;;;;34.40;20.23;;;6.20;99.90;;;;;;5080835;28;20026;-84
2023/11/11 04:03:27;;;;;;;40.38;20.73;;;6.20;99.90;;;;;;5016287;28;20391;-84
2023/11/11 04:05:53;;;;;;;44.10;24.35;;;6.20;99.90;;;;;;5016185;28;20034;-84
2023/11/11 04:08:19;;;;;;;40.88;22.65;;;6.20;99.90;;;;;;5016288;28;20109;-77
2023/11/11 04:10:45;;;;;;;37.88;22.15;;;6.10;99.90;;;;;;5016108;28;20033;-84
2023/11/11 04:13:12;;;;;;;42.92;22.63;;;6.10;99.90;;;;;;5073742;28;20045;-77
2023/11/11 04:15:38;;;;;;;43.95;23.30;;;6.20;99.90;;;;;;5073471;28;20079;-77
2023/11/11 04:18:03;;;;;;;42.05;22.60;;;6.10;99.90;;;;;;5084095;28;20425;-83
2023/11/11 04:20:29;;;;;;;43.15;23.23;;;6.10;99.90;;;;;;5015985;28;20443;-78
2023/11/11 04:22:58;;;;;;;50.80;25.25;;;6.10;99.90;;;;;;5015860;28;20520;-83
2023/11/11 04:25:23;;;;;;;45.42;23.38;;;6.10;99.90;;;;;;5015795;28;20033;-83
2023/11/11 04:27:49;;;;;;;48.42;24.30;;;6.10;99.90;;;;;;5083796;28;20379;-83
2023/11/11 04:30:16;;;;;;;48.55;24.98;;;6.10;99.90;;;;;;5015938;28;20026;-77
2023/11/11 04:32:42;;;;;;;51.40;26.35;;;6.00;99.90;;;;;;5015604;28;20590;-77
2023/11/11 04:35:08;;;;;;;54.15;25.88;;;6.10;99.90;;;;;;5015451;28;20034;-83
2023/11/11 04:37:35;;;;;;;73.05;29.83;;;6.10;99.90;;;;;;5015602;28;20115;-77
2023/11/11 04:40:01;;;;;;;67.13;28.40;;;6.10;99.90;;;;;;5083477;28;20030;-83
2023/11/11 04:42:27;;;;;;;56.25;26.85;;;6.00;99.90;;;;;;5083806;28;20460;-83
2023/11/11 04:44:53;;;;;;;58.60;29.13;;;6.10;99.90;;;;;;5015579;28;20487;-83
2023/11/11 04:47:20;;;;;;;65.90;29.77;;;6.00;99.90;;;;;;5097092;28;20563;-83
2023/11/11 04:49:47;;;;;;;57.40;27.67;;;6.00;99.90;;;;;;5098799;28;20012;-78
2023/11/11 04:52:13;;;;;;;58.20;26.85;;;6.00;99.90;;;;;;5090702;28;20024;-77
2023/11/11 04:54:38;;;;;;;69.38;30.30;;;6.10;99.90;;;;;;5095963;28;20549;-84
2023/11/11 04:57:05;;;;;;;57.63;28.23;;;6.10;99.90;;;;;;5095326;28;20039;-84
2023/11/11 04:59:30;;;;;;;58.63;27.40;;;6.10;99.90;;;;;;5095526;28;20051;-77
2023/11/11 05:01:57;;;;;;;56.20;28.02;;;6.10;99.90;;;;;;5095356;28;20051;-77
2023/11/11 05:04:23;;;;;;;61.47;28.90;;;6.10;99.90;;;;;;5094996;28;20020;-77
2023/11/11 05:06:50;;;;;;;56.75;27.08;;;6.10;99.90;;;;;;5087843;28;20034;-77
2023/11/11 05:09:22;;;;;;;60.30;27.88;;;6.10;99.90;;;;;;5088778;28;20024;-84
2023/11/11 05:11:48;;;;;;;62.85;28.35;;;6.10;99.90;;;;;;5095204;28;20020;-84
2023/11/11 05:14:17;;;;;;;60.10;28.67;;;6.10;99.90;;;;;;5094127;28;20031;-79
2023/11/11 05:16:50;;;;;;;66.30;29.85;;;6.10;99.90;;;;;;5093935;28;20020;-78
2023/11/11 05:19:17;;;;;;;57.42;27.83;;;6.10;99.90;;;;;;5094965;28;20039;-77
2023/11/11 05:21:43;;;;;;;66.53;28.17;;;6.10;99.90;;;;;;5093569;28;20016;-83
2023/11/11 05:24:10;;;;;;;59.50;27.75;;;6.10;99.90;;;;;;5095039;28;20089;-84
2023/11/11 05:26:38;;;;;;;63.03;27.98;;;6.10;99.90;;;;;;5095122;28;20023;-78
2023/11/11 05:29:04;;;;;;;62.58;27.70;;;6.10;99.90;;;;;;5094694;28;20035;-83
2023/11/11 05:31:31;;;;;;;58.88;29.70;;;6.10;99.90;;;;;;5093831;28;20473;-77
2023/11/11 05:33:57;;;;;;;59.65;27.42;;;6.20;99.90;;;;;;5090880;28;20020;-84
2023/11/11 05:36:24;;;;;;;59.95;29.73;;;6.10;99.90;;;;;;5094568;28;20051;-83
2023/11/11 05:38:50;;;;;;;60.42;29.45;;;6.10;99.90;;;;;;5094776;28;20544;-84
2023/11/11 05:41:16;;;;;;;60.75;27.40;;;6.20;99.90;;;;;;5094598;28;20052;-78
2023/11/11 05:43:41;;;;;;;58.50;30.27;;;6.10;99.90;;;;;;5087291;28;20366;-77
2023/11/11 05:46:11;;;;;;;58.78;29.45;;;6.20;99.90;;;;;;5085851;28;20027;-82
2023/11/11 05:48:40;;;;;;;59.92;28.20;;;6.20;99.90;;;;;;5079448;28;20018;-83
2023/11/11 05:51:07;;;;;;;58.78;27.67;;;6.20;99.90;;;;;;5009813;28;20463;-83
2023/11/11 05:53:33;;;;;;;56.75;26.42;;;6.20;99.90;;;;;;5079236;28;20399;-77
2023/11/11 05:55:59;;;;;;;58.83;28.77;;;6.20;99.90;;;;;;5006922;28;20053;-77
2023/11/11 05:58:28;;;;;;;69.00;30.83;;;6.20;99.90;;;;;;5006696;28;20127;-77
2023/11/11 06:00:53;;;;;;;59.85;28.88;;;6.20;99.90;;;;;;4992203;28;20041;-77
2023/11/11 06:03:19;;;;;;;65.53;30.13;;;6.20;99.90;;;;;;5072663;28;20527;-77
2023/11/11 06:05:45;;;;;;;56.50;28.52;;;6.20;99.90;;;;;;5070914;28;20026;-77
2023/11/11 06:08:14;;;;;;;56.70;28.02;;;6.10;99.90;;;;;;5045183;28;20014;-77
2023/11/11 06:10:40;;;;;;;56.83;27.98;;;6.10;99.90;;;;;;5003040;28;20030;-77
2023/11/11 06:13:06;;;;;;;57.95;27.40;;;6.10;99.90;;;;;;5072482;28;20416;-76
2023/11/11 06:15:35;;;;;;;54.20;26.00;;;6.10;99.90;;;;;;5077081;28;20021;-77
2023/11/11 06:18:01;;;;;;;54.05;26.35;;;6.10;99.90;;;;;;5071500;28;20042;-77
2023/11/11 06:20:28;;;;;;;62.08;28.83;;;6.10;99.90;;;;;;5009431;28;20475;-76
2023/11/11 06:22:54;;;;;;;56.00;28.00;;;6.10;99.90;;;;;;5077003;28;20390;-76
2023/11/11 06:25:20;;;;;;;60.65;28.63;;;6.10;99.90;;;;;;5076392;28;20014;-83
2023/11/11 06:27:49;;;;;;;56.13;27.00;;;6.10;99.90;;;;;;5060733;28;20034;-82
2023/11/11 06:30:19;;;;;;;48.85;24.98;;;6.10;99.90;;;;;;5002218;28;20050;-82
2023/11/11 06:32:46;;;;;;;56.83;29.05;;;6.10;99.90;;;;;;5072191;28;20044;-82
2023/11/11 06:35:12;;;;;;;54.60;27.55;;;6.10;99.90;;;;;;5000691;28;20036;-82
2023/11/11 06:37:39;;;;;;;55.22;26.55;;;6.10;99.90;;;;;;5009873;28;20042;-82
2023/11/11 06:40:07;;;;;;;55.05;27.88;;;6.20;99.90;;;;;;5001961;28;20032;-82
2023/11/11 06:42:33;;;;;;;58.17;27.65;;;6.10;99.90;;;;;;5009739;28;20045;-82
2023/11/11 06:44:59;;;;;;;54.53;26.70;;;6.20;99.90;;;;;;5004063;28;20026;-83
2023/11/11 06:47:24;;;;;;;51.47;26.00;;;6.20;99.90;;;;;;5072304;28;20120;-82
2023/11/11 06:49:52;;;;;;;61.42;28.55;;;6.20;99.90;;;;;;4997311;28;20051;-83
2023/11/11 06:52:18;;;;;;;52.90;24.05;;;6.20;99.90;;;;;;5004394;28;20030;-81
2023/11/11 06:54:44;;;;;;;59.03;27.52;;;6.20;99.90;;;;;;5065815;28;20075;-82
2023/11/11 06:57:10;;;;;;;53.03;26.08;;;6.20;99.90;;;;;;5076187;28;20049;-83
2023/11/11 06:59:37;;;;;;;66.40;29.63;;;6.20;99.90;;;;;;5069098;28;20386;-84
2023/11/11 07:02:05;;;;;;;60.85;29.95;;;6.20;99.90;;;;;;5000096;28;20383;-83
2023/11/11 07:04:32;;;;;;;51.85;25.13;;;6.30;99.90;;;;;;5077900;28;20407;-83
2023/11/11 07:06:57;;;;;;;58.83;27.75;;;6.30;99.90;;;;;;5067404;28;20117;-83
2023/11/11 07:09:23;;;;;;;55.22;27.23;;;6.30;99.90;;;;;;5066066;28;20113;-83
2023/11/11 07:11:49;;;;;;;62.13;27.27;;;6.30;99.90;;;;;;5076734;28;20535;-83
2023/11/11 07:14:15;;;;;;;58.75;28.55;;;6.30;99.90;;;;;;5069191;28;20099;-83
2023/11/11 07:16:40;;;;;;;69.10;29.77;;;6.40;99.90;;;;;;5004462;28;20491;-82
2023/11/11 07:19:07;;;;;;;66.03;30.83;;;6.50;99.90;;;;;;5009392;28;20379;-83
2023/11/11 07:21:33;;;;;;;58.92;29.08;;;6.50;99.90;;;;;;5005078;28;20033;-83
2023/11/11 07:23:59;;;;;;;61.22;28.30;;;6.50;99.90;;;;;;5006402;28;20406;-83
2023/11/11 07:26:25;;;;;;;63.85;28.98;;;6.50;99.90;;;;;;5070631;28;20019;-82
2023/11/11 07:28:51;;;;;;;60.38;28.35;;;6.60;99.90;;;;;;5005261;28;20080;-82
2023/11/11 07:31:18;;;;;;;60.22;26.90;;;6.60;99.90;;;;;;5076598;28;20422;-82
2023/11/11 07:33:45;;;;;;;60.75;30.33;;;6.60;99.90;;;;;;5002851;28;20109;-81
2023/11/11 07:36:11;;;;;;;58.63;28.48;;;6.60;99.90;;;;;;5072685;28;20034;-82
2023/11/11 07:38:39;;;;;;;66.25;31.08;;;6.60;99.90;;;;;;5077882;28;20038;-82
2023/11/11 07:41:08;;;;;;;62.88;30.25;;;6.70;99.90;;;;;;5067446;28;20109;-81
2023/11/11 07:43:38;;;;;;;58.17;27.17;;;6.70;99.90;;;;;;5068913;28;20026;-82
2023/11/11 07:46:06;;;;;;;56.45;27.65;;;6.60;99.90;;;;;;5008638;28;20030;-81
2023/11/11 07:48:33;;;;;;;51.83;26.92;;;6.60;99.90;;;;;;5001952;28;20037;-81
2023/11/11 07:51:01;;;;;;;59.88;26.80;;;6.70;99.90;;;;;;5068770;28;20022;-82
2023/11/11 07:53:26;;;;;;;54.80;27.27;;;6.80;99.90;;;;;;5062796;28;20040;-81
2023/11/11 07:55:52;;;;;;;55.83;28.00;;;6.80;99.90;;;;;;5003842;28;20109;-82
2023/11/11 07:58:18;;;;;;;55.15;26.80;;;6.80;99.90;;;;;;5070173;28;20034;-82
2023/11/11 08:00:44;;;;;;;59.97;26.70;;;6.80;99.90;;;;;;5002789;28;20018;-82
2023/11/11 08:03:11;;;;;;;57.80;27.75;;;6.80;99.90;;;;;;5008951;28;20030;-82
2023/11/11 08:05:37;;;;;;;59.47;25.88;;;6.80;99.90;;;;;;5007668;28;20022;-81
2023/11/11 08:08:03;;;;;;;55.58;25.05;;;6.80;99.90;;;;;;5076618;28;20070;-81
2023/11/11 08:10:29;;;;;;;51.70;25.75;;;6.80;99.90;;;;;;5008973;28;20428;-82
2023/11/11 08:12:55;;;;;;;53.70;26.13;;;6.80;99.90;;;;;;4995486;28;20104;-83
2023/11/11 08:15:21;;;;;;;50.13;27.27;;;6.80;99.90;;;;;;5002801;28;20037;-83
2023/11/11 08:17:49;;;;;;;54.55;27.98;;;6.80;99.90;;;;;;5069218;28;20042;-82
2023/11/11 08:20:18;;;;;;;54.10;25.92;;;6.90;99.90;;;;;;5002448;28;20026;-82
2023/11/11 08:22:48;;;;;;;57.17;26.77;;;6.90;99.90;;;;;;5062933;28;20125;-83
2023/11/11 08:25:14;;;;;;;54.70;25.15;;;6.90;99.90;;;;;;4996012;28;20127;-82
2023/11/11 08:27:43;;;;;;;53.45;24.63;;;7.00;99.90;;;;;;5077034;28;20082;-81
2023/11/11 08:30:10;;;;;;;73.05;28.17;;;7.00;99.90;;;;;;5011915;28;20499;-83
2023/11/11 08:32:37;;;;;;;53.45;26.77;;;7.10;99.90;;;;;;5000152;28;20479;-83
2023/11/11 08:35:05;;;;;;;50.78;23.33;;;7.10;99.90;;;;;;5005846;28;20206;-83
2023/11/11 08:37:32;;;;;;;46.28;23.48;;;7.10;99.90;;;;;;5070068;28;20072;-83
2023/11/11 08:39:58;;;;;;;47.75;23.17;;;7.20;99.90;;;;;;5010212;28;20040;-83
2023/11/11 08:42:24;;;;;;;54.55;25.30;;;7.20;99.90;;;;;;5011046;28;20081;-83
2023/11/11 08:44:51;;;;;;;57.17;27.20;;;7.30;99.90;;;;;;5077735;28;20484;-83
2023/11/11 08:47:17;;;;;;;59.65;28.35;;;7.30;99.90;;;;;;5011609;28;20046;-83
2023/11/11 08:49:43;;;;;;;228.23;93.50;;;7.30;99.90;;;;;;5078015;28;20384;-84
2023/11/11 08:52:09;;;;;;;113.63;50.17;;;7.40;99.90;;;;;;5003446;28;20033;-83
2023/11/11 08:54:35;;;;;;;460.08;185.90;;;7.40;99.90;;;;;;5009518;28;20030;-83
2023/11/11 08:57:01;;;;;;;554.03;234.23;;;7.40;99.90;;;;;;5010342;28;20034;-84
2023/11/11 08:59:26;;;;;;;326.17;117.25;;;7.40;99.90;;;;;;5001471;28;20069;-84
2023/11/11 09:01:52;;;;;;;111.70;45.92;;;7.30;99.90;;;;;;5010746;28;20456;-83
2023/11/11 09:04:18;;;;;;;847.85;357.92;;;7.30;99.90;;;;;;5010825;28;20038;-83
2023/11/11 09:06:44;;;;;;;148.55;58.33;;;7.20;99.90;;;;;;5078162;28;20387;-83
2023/11/11 09:09:14;;;;;;;437.85;158.98;;;7.20;99.90;;;;;;5075669;28;20078;-83
2023/11/11 09:11:40;;;;;;;247.10;91.60;;;7.20;99.90;;;;;;5018840;28;20108;-83
2023/11/11 09:14:06;;;;;;;151.68;55.33;;;7.20;99.90;;;;;;5013598;28;20079;-83
2023/11/11 09:16:32;;;;;;;166.27;63.33;;;7.10;99.90;;;;;;5007577;28;20037;-83
2023/11/11 09:18:59;;;;;;;174.48;68.40;;;7.10;99.90;;;;;;5011627;28;20480;-85
2023/11/11 09:21:26;;;;;;;324.98;121.45;;;7.10;99.90;;;;;;5077177;28;20022;-84
2023/11/11 09:23:52;;;;;;;193.30;111.28;;;7.20;99.90;;;;;;4999982;28;20034;-82
2023/11/11 09:26:19;;;;;;;153.05;61.03;;;7.20;99.90;;;;;;5006107;28;20018;-83
2023/11/11 09:28:45;;;;;;;268.77;153.05;;;7.20;99.90;;;;;;5079190;28;20545;-83
2023/11/11 09:31:12;;;;;;;104.45;53.30;;;7.30;99.90;;;;;;5010016;28;20029;-84
2023/11/11 09:33:39;;;;;;;96.43;52.33;;;7.30;99.90;;;;;;5011348;28;20026;-83
2023/11/11 09:36:06;;;;;;;142.57;78.82;;;7.40;99.90;;;;;;5078028;28;20383;-84
2023/11/11 09:38:32;;;;;;;173.38;100.93;;;7.40;99.90;;;;;;5011223;28;20568;-84
2023/11/11 09:40:58;;;;;;;84.05;46.42;;;7.40;99.90;;;;;;5073640;28;20068;-83
2023/11/11 09:43:44;;;;;;;147.57;91.25;;;7.30;99.90;;;;;;5070643;28;20039;-84
2023/11/11 09:46:15;;;;;;;172.00;106.63;;;7.30;99.90;;;;;;5058203;28;20030;-84
2023/11/11 09:48:42;;;;;;;129.77;77.25;;;7.20;99.90;;;;;;4993841;28;20038;-82
2023/11/11 09:51:09;;;;;;;200.98;130.23;;;7.20;99.90;;;;;;5006468;28;20022;-81
2023/11/11 09:53:37;;;;;;;118.93;72.95;;;7.20;99.90;;;;;;5073261;28;20034;-81
2023/11/11 09:56:05;;;;;;;113.57;63.92;;;7.20;99.90;;;;;;5010359;28;20054;-81
2023/11/11 09:58:33;;;;;;;139.50;85.63;;;7.30;99.90;;;;;;4997971;28;20038;-81
2023/11/11 10:03:28;;;;;;;63.60;35.85;;;7.30;99.90;;;;;;4965064;28;20492;-81
2023/11/11 10:05:54;;;;;;;112.88;83.05;;;7.40;99.90;;;;;;4971393;28;20023;-83
2023/11/11 10:08:24;;;;;;;169.13;141.77;;;7.40;99.90;;;;;;4968131;28;20023;-82
2023/11/11 10:10:49;;;;;;;89.20;59.60;;;7.40;99.90;;;;;;4980433;28;20011;-82
2023/11/11 10:13:16;;;;;;;124.90;90.13;;;7.40;99.90;;;;;;4969705;28;20033;-81
2023/11/11 10:15:41;;;;;;;227.65;203.18;;;7.40;99.90;;;;;;5030295;28;20023;-81
2023/11/11 10:18:07;;;;;;;260.00;232.90;;;7.40;99.90;;;;;;4966287;28;20038;-81
2023/11/11 10:20:34;;;;;;;179.95;153.48;;;7.40;99.90;;;;;;5037413;28;20023;-81
2023/11/11 10:23:00;;;;;;;332.23;296.02;;;7.40;99.90;;;;;;5037409;28;20031;-81
2023/11/11 10:25:27;;;;;;;354.75;292.65;;;7.40;99.90;;;;;;4971165;28;20525;-82
2023/11/11 10:27:54;;;;;;;191.18;152.90;;;7.50;99.90;;;;;;4970812;28;20035;-81
2023/11/11 10:30:24;;;;;;;751.45;651.17;;;7.50;99.90;;;;;;4971026;28;20084;-81
2023/11/11 10:32:54;;;;;;;210.32;164.93;;;7.50;99.90;;;;;;4968176;28;20467;-81
2023/11/11 10:35:22;;;;;;;65.30;39.22;;;7.60;99.90;;;;;;4966521;28;20030;-76
2023/11/11 10:37:50;;;;;;;167.25;125.60;;;7.60;99.90;;;;;;4970767;28;20035;-76
2023/11/11 10:40:19;;;;;;;101.45;71.47;;;7.60;99.90;;;;;;4966084;28;20045;-76
2023/11/11 10:42:46;;;;;;;228.90;166.63;;;7.70;99.90;;;;;;4969212;28;20224;-77
2023/11/11 10:45:15;;;;;;;239.23;163.70;;;7.80;99.90;;;;;;5034719;28;20054;-76
2023/11/11 10:47:43;;;;;;;67.07;42.33;;;7.80;99.90;;;;;;4967046;28;20023;-76
2023/11/11 10:50:12;;;;;;;187.02;123.25;;;7.90;99.90;;;;;;4969844;28;20476;-76
2023/11/11 10:52:42;;;;;;;63.17;41.22;;;7.90;99.90;;;;;;4964061;28;20063;-76
2023/11/11 10:55:09;;;;;;;48.42;30.00;;;7.90;99.90;;;;;;5034515;28;20464;-77
2023/11/11 10:57:35;;;;;;;65.10;44.28;;;8.00;99.90;;;;;;5034375;28;20089;-77
2023/11/11 11:00:17;;;;;;;68.10;46.88;;;8.10;99.90;;;;;;4970308;28;20088;-77
2023/11/11 11:02:47;;;;;;;45.88;26.30;;;8.20;99.90;;;;;;5036638;28;20054;-83
2023/11/11 11:05:19;;;;;;;41.75;22.95;;;8.20;99.90;;;;;;5035266;28;20023;-82
2023/11/11 11:07:55;;;;;;;38.58;23.02;;;8.30;99.90;;;;;;4969509;28;20034;-84
2023/11/11 11:10:32;;;;;;;41.22;23.40;;;8.30;99.90;;;;;;5031297;28;20037;-83
2023/11/11 11:13:03;;;;;;;41.83;22.85;;;8.20;99.90;;;;;;5033814;28;20389;-85
2023/11/11 11:15:36;;;;;;;43.42;24.45;;;8.30;99.90;;;;;;4967686;28;20019;-84
2023/11/11 11:18:02;;;;;;;38.03;23.33;;;8.30;99.90;;;;;;5035006;28;20049;-85
2023/11/11 11:20:27;;;;;;;48.67;28.30;;;8.40;99.90;;;;;;5042635;28;20015;-84
2023/11/11 11:23:00;;;;;;;41.88;25.17;;;8.40;99.90;;;;;;4989069;28;20031;-84
2023/11/11 11:25:41;;;;;;;47.65;25.88;;;8.50;99.90;;;;;;4967862;28;20478;-84
2023/11/11 11:28:10;;;;;;;77.03;50.33;;;8.50;99.90;;;;;;4968239;28;20126;-83
2023/11/11 11:30:46;;;;;;;63.83;39.20;;;8.50;99.90;;;;;;5034624;28;20019;-84
2023/11/11 11:33:20;;;;;;;57.28;33.90;;;8.50;99.90;;;;;;5034574;28;20022;-83
2023/11/11 11:36:14;;;;;;;56.35;35.55;;;8.60;99.90;;;;;;5034060;28;20019;-83
2023/11/11 11:38:40;;;;;;;76.70;48.85;;;8.60;99.90;;;;;;4966094;28;20053;-83
2023/11/11 11:41:26;;;;;;;93.53;64.88;;;8.60;99.90;;;;;;4994694;28;20172;-83
2023/11/11 11:43:53;;;;;;;38.10;25.05;;;8.60;99.90;;;;;;5033452;28;20563;-84
2023/11/11 11:46:23;;;;;;;54.03;36.88;;;8.60;99.90;;;;;;4967113;28;20136;-84
2023/11/11 11:48:50;;;;;;;49.20;30.63;;;8.60;99.90;;;;;;4967118;28;20023;-85
2023/11/11 11:51:21;;;;;;;73.47;49.33;;;8.60;99.90;;;;;;4985748;28;20056;-83
2023/11/11 11:53:53;;;;;;;43.35;26.88;;;8.50;99.90;;;;;;4966216;28;20027;-84
2023/11/11 11:56:32;;;;;;;;;;;8.50;99.90;;;;;;5036266;28;20503;-84
2023/11/11 11:59:01;;;;;;;44.65;27.35;;;8.50;99.90;;;;;;5035162;28;20017;-83
2023/11/11 12:01:30;;;;;;;65.85;40.55;;;8.50;99.90;;;;;;4968562;28;20103;-84
2023/11/11 12:03:58;;;;;;;85.47;52.60;;;8.50;99.90;;;;;;4970490;28;20023;-84
2023/11/11 12:06:26;;;;;;;74.70;45.25;;;8.50;99.90;;;;;;4972058;28;20538;-85
2023/11/11 12:08:53;;;;;;;30.92;18.52;;;8.50;99.90;;;;;;4966692;28;20114;-84
2023/11/11 12:11:37;;;;;;;40.03;25.95;;;8.50;99.90;;;;;;4972500;28;20070;-83
2023/11/11 12:14:08;;;;;;;35.55;20.23;;;8.40;99.90;;;;;;5039712;28;20023;-84
2023/11/11 12:16:44;;;;;;;111.45;73.05;;;8.40;99.90;;;;;;4970748;28;20023;-83
2023/11/11 12:19:14;;;;;;;47.83;33.30;;;8.30;99.90;;;;;;4970830;28;20669;-83
2023/11/11 12:21:49;;;;;;;56.55;35.90;;;8.30;99.90;;;;;;4973567;28;20030;-84
2023/11/11 12:24:18;;;;;;;33.58;19.65;;;8.20;99.90;;;;;;4969125;28;20379;-83
2023/11/11 12:26:48;;;;;;;54.50;36.85;;;8.20;99.90;;;;;;4972279;28;20472;-83
2023/11/11 12:29:15;;;;;;;52.05;35.30;;;8.10;99.90;;;;;;5008265;28;20034;-83
2023/11/11 12:31:47;;;;;;;35.50;23.75;;;8.10;99.90;;;;;;5037842;28;20038;-83
2023/11/11 12:34:15;;;;;;;47.28;27.40;;;8.10;99.90;;;;;;5036754;28;20485;-83
2023/11/11 12:36:41;;;;;;;40.25;25.88;;;8.10;99.90;;;;;;4970908;28;20046;-84
2023/11/11 12:39:08;;;;;;;58.47;39.03;;;8.00;99.90;;;;;;5039664;28;20034;-82